sensor_id;sensor_type;location;lat;lon;timestamp;temperature;humidity
54260;DHT22;40172;53.022;7.012;2023-08-06T00:02:13;13.30;99.90
54260;DHT22;40172;53.022;7.012;2023-08-06T00:04:38;13.40;99.90
54260;DHT22;40172;53.022;7.012;2023-08-06T00:07:04;13.40;99.90
54260;DHT22;40172;53.022;7.012;2023-08-06T00:09:30;13.40;99.90
54260;DHT22;40172;53.022;7.012;2023-08-06T00:11:55;13.50;99.90
54260;DHT22;40172;53.022;7.012;2023-08-06T00:14:21;13.50;99.90
54260;DHT22;40172;53.022;7.012;2023-08-06T00:16:46;13.50;99.90
54260;DHT22;40172;53.022;7.012;2023-08-06T00:19:12;13.60;99.90
54260;DHT22;40172;53.022;7.012;2023-08-06T00:21:38;13.50;99.90
54260;DHT22;40172;53.022;7.012;2023-08-06T00:24:03;13.50;99.90
54260;DHT22;40172;53.022;7.012;2023-08-06T00:26:29;13.50;99.90
54260;DHT22;40172;53.022;7.012;2023-08-06T00:28:54;13.50;99.90
54260;DHT22;40172;53.022;7.012;2023-08-06T00:31:20;13.50;99.90
54260;DHT22;40172;53.022;7.012;2023-08-06T00:33:45;14.30;99.90
54260;DHT22;40172;53.022;7.012;2023-08-06T00:36:11;13.60;99.90
54260;DHT22;40172;53.022;7.012;2023-08-06T00:38:36;13.60;99.90
54260;DHT22;40172;53.022;7.012;2023-08-06T00:41:02;13.50;99.90
54260;DHT22;40172;53.022;7.012;2023-08-06T00:43:28;13.60;99.90
54260;DHT22;40172;53.022;7.012;2023-08-06T00:45:54;13.50;99.90
54260;DHT22;40172;53.022;7.012;2023-08-06T00:48:20;13.60;99.90
54260;DHT22;40172;53.022;7.012;2023-08-06T00:50:45;13.60;99.90
54260;DHT22;40172;53.022;7.012;2023-08-06T00:53:11;13.50;99.90
54260;DHT22;40172;53.022;7.012;2023-08-06T00:55:37;13.60;99.90
54260;DHT22;40172;53.022;7.012;2023-08-06T00:58:03;13.60;99.90
54260;DHT22;40172;53.022;7.012;2023-08-06T01:00:29;13.60;99.90
54260;DHT22;40172;53.022;7.012;2023-08-06T01:02:55;13.60;99.90
54260;DHT22;40172;53.022;7.012;2023-08-06T01:05:22;13.50;99.90
54260;DHT22;40172;53.022;7.012;2023-08-06T01:15:55;13.60;99.90
54260;DHT22;40172;53.022;7.012;2023-08-06T01:18:25;13.60;99.90
54260;DHT22;40172;53.022;7.012;2023-08-06T01:20:51;13.60;99.90
54260;DHT22;40172;53.022;7.012;2023-08-06T01:23:18;13.60;99.90
54260;DHT22;40172;53.022;7.012;2023-08-06T01:25:53;13.60;99.90
54260;DHT22;40172;53.022;7.012;2023-08-06T01:29:06;13.60;99.90
54260;DHT22;40172;53.022;7.012;2023-08-06T01:31:36;13.60;99.90
54260;DHT22;40172;53.022;7.012;2023-08-06T01:34:06;13.60;99.90
54260;DHT22;40172;53.022;7.012;2023-08-06T01:36:33;13.60;99.90
54260;DHT22;40172;53.022;7.012;2023-08-06T01:38:59;13.70;99.90
54260;DHT22;40172;53.022;7.012;2023-08-06T01:41:25;13.60;99.90
54260;DHT22;40172;53.022;7.012;2023-08-06T01:43:50;13.70;99.90
54260;DHT22;40172;53.022;7.012;2023-08-06T01:46:16;13.70;99.90
54260;DHT22;40172;53.022;7.012;2023-08-06T01:48:42;13.70;99.90
54260;DHT22;40172;53.022;7.012;2023-08-06T01:51:07;13.80;99.90
54260;DHT22;40172;53.022;7.012;2023-08-06T01:53:34;13.70;99.90
54260;DHT22;40172;53.022;7.012;2023-08-06T01:55:59;13.70;99.90
54260;DHT22;40172;53.022;7.012;2023-08-06T01:58:25;13.70;99.90
54260;DHT22;40172;53.022;7.012;2023-08-06T02:00:50;13.70;99.90
54260;DHT22;40172;53.022;7.012;2023-08-06T02:03:16;13.70;99.90
54260;DHT22;40172;53.022;7.012;2023-08-06T02:05:42;13.80;99.90
54260;DHT22;40172;53.022;7.012;2023-08-06T02:08:08;13.80;99.90
54260;DHT22;40172;53.022;7.012;2023-08-06T02:10:34;13.80;99.90
54260;DHT22;40172;53.022;7.012;2023-08-06T02:12:59;13.70;99.90
54260;DHT22;40172;53.022;7.012;2023-08-06T02:15:25;13.70;99.90
54260;DHT22;40172;53.022;7.012;2023-08-06T02:17:51;13.80;99.90
54260;DHT22;40172;53.022;7.012;2023-08-06T02:20:16;13.70;99.90
54260;DHT22;40172;53.022;7.012;2023-08-06T02:22:42;13.70;99.90
54260;DHT22;40172;53.022;7.012;2023-08-06T02:25:08;13.80;99.90
54260;DHT22;40172;53.022;7.012;2023-08-06T02:27:33;13.80;99.90
54260;DHT22;40172;53.022;7.012;2023-08-06T02:29:59;13.80;99.90
54260;DHT22;40172;53.022;7.012;2023-08-06T02:32:24;13.70;99.90
54260;DHT22;40172;53.022;7.012;2023-08-06T02:34:50;13.70;99.90
54260;DHT22;40172;53.022;7.012;2023-08-06T02:37:16;13.80;99.90
54260;DHT22;40172;53.022;7.012;2023-08-06T02:39:41;13.80;99.90
54260;DHT22;40172;53.022;7.012;2023-08-06T02:42:07;13.80;99.90
54260;DHT22;40172;53.022;7.012;2023-08-06T02:44:33;13.80;99.90
54260;DHT22;40172;53.022;7.012;2023-08-06T02:46:59;13.80;99.90
54260;DHT22;40172;53.022;7.012;2023-08-06T02:49:25;13.80;99.90
54260;DHT22;40172;53.022;7.012;2023-08-06T02:51:51;13.80;99.90
54260;DHT22;40172;53.022;7.012;2023-08-06T02:54:20;13.80;99.90
54260;DHT22;40172;53.022;7.012;2023-08-06T02:56:46;13.80;99.90
54260;DHT22;40172;53.022;7.012;2023-08-06T02:59:14;13.80;99.90
54260;DHT22;40172;53.022;7.012;2023-08-06T03:01:40;13.80;99.90
54260;DHT22;40172;53.022;7.012;2023-08-06T03:04:06;13.80;99.90
54260;DHT22;40172;53.022;7.012;2023-08-06T03:06:31;13.70;99.90
54260;DHT22;40172;53.022;7.012;2023-08-06T03:08:57;13.70;99.90
54260;DHT22;40172;53.022;7.012;2023-08-06T03:11:23;13.70;99.90
54260;DHT22;40172;53.022;7.012;2023-08-06T03:13:48;13.70;99.90
54260;DHT22;40172;53.022;7.012;2023-08-06T03:16:14;13.70;99.90
54260;DHT22;40172;53.022;7.012;2023-08-06T03:18:40;13.70;99.90
54260;DHT22;40172;53.022;7.012;2023-08-06T03:21:06;13.80;99.90
54260;DHT22;40172;53.022;7.012;2023-08-06T03:23:31;13.70;99.90
54260;DHT22;40172;53.022;7.012;2023-08-06T03:26:04;13.80;99.90
54260;DHT22;40172;53.022;7.012;2023-08-06T03:28:30;13.70;99.90
54260;DHT22;40172;53.022;7.012;2023-08-06T03:31:02;13.80;99.90
54260;DHT22;40172;53.022;7.012;2023-08-06T03:33:28;13.70;99.90
54260;DHT22;40172;53.022;7.012;2023-08-06T03:35:53;13.70;99.90
54260;DHT22;40172;53.022;7.012;2023-08-06T03:38:19;13.70;99.90
54260;DHT22;40172;53.022;7.012;2023-08-06T03:40:46;13.70;99.90
54260;DHT22;40172;53.022;7.012;2023-08-06T03:43:11;13.70;99.90
54260;DHT22;40172;53.022;7.012;2023-08-06T03:45:37;13.70;99.90
54260;DHT22;40172;53.022;7.012;2023-08-06T03:48:03;13.80;99.90
54260;DHT22;40172;53.022;7.012;2023-08-06T03:50:28;13.70;99.90
54260;DHT22;40172;53.022;7.012;2023-08-06T03:52:54;13.70;99.90
54260;DHT22;40172;53.022;7.012;2023-08-06T03:55:19;13.70;99.90
54260;DHT22;40172;53.022;7.012;2023-08-06T03:57:45;13.70;99.90
54260;DHT22;40172;53.022;7.012;2023-08-06T04:00:11;13.70;99.90
54260;DHT22;40172;53.022;7.012;2023-08-06T04:02:37;13.70;99.90
54260;DHT22;40172;53.022;7.012;2023-08-06T04:05:03;13.70;99.90
54260;DHT22;40172;53.022;7.012;2023-08-06T04:07:29;13.70;99.90
54260;DHT22;40172;53.022;7.012;2023-08-06T04:09:59;13.60;99.90
54260;DHT22;40172;53.022;7.012;2023-08-06T04:12:25;13.60;99.90
54260;DHT22;40172;53.022;7.012;2023-08-06T04:14:51;13.60;99.90
54260;DHT22;40172;53.022;7.012;2023-08-06T04:17:18;13.50;99.90
54260;DHT22;40172;53.022;7.012;2023-08-06T04:19:55;13.60;99.90
54260;DHT22;40172;53.022;7.012;2023-08-06T04:22:24;13.50;99.90
54260;DHT22;40172;53.022;7.012;2023-08-06T04:24:49;13.40;99.90
54260;DHT22;40172;53.022;7.012;2023-08-06T04:27:15;13.40;99.90
54260;DHT22;40172;53.022;7.012;2023-08-06T04:29:41;13.40;99.90
54260;DHT22;40172;53.022;7.012;2023-08-06T04:32:08;13.40;99.90
54260;DHT22;40172;53.022;7.012;2023-08-06T04:34:35;13.40;99.90
54260;DHT22;40172;53.022;7.012;2023-08-06T04:37:01;13.40;99.90
54260;DHT22;40172;53.022;7.012;2023-08-06T04:39:27;14.10;99.90
54260;DHT22;40172;53.022;7.012;2023-08-06T04:41:53;13.30;99.90
54260;DHT22;40172;53.022;7.012;2023-08-06T04:44:19;13.40;99.90
54260;DHT22;40172;53.022;7.012;2023-08-06T04:46:45;13.40;99.90
54260;DHT22;40172;53.022;7.012;2023-08-06T04:49:11;13.40;99.90
54260;DHT22;40172;53.022;7.012;2023-08-06T04:51:37;13.40;99.90
54260;DHT22;40172;53.022;7.012;2023-08-06T04:54:02;14.80;99.90
54260;DHT22;40172;53.022;7.012;2023-08-06T04:56:28;13.40;99.90
54260;DHT22;40172;53.022;7.012;2023-08-06T04:58:54;13.40;99.90
54260;DHT22;40172;53.022;7.012;2023-08-06T05:01:19;13.40;99.90
54260;DHT22;40172;53.022;7.012;2023-08-06T05:03:47;13.50;99.90
54260;DHT22;40172;53.022;7.012;2023-08-06T05:06:13;13.50;99.90
54260;DHT22;40172;53.022;7.012;2023-08-06T05:08:38;13.50;99.90
54260;DHT22;40172;53.022;7.012;2023-08-06T05:11:04;13.50;99.90
54260;DHT22;40172;53.022;7.012;2023-08-06T05:13:29;13.60;99.90
54260;DHT22;40172;53.022;7.012;2023-08-06T05:15:55;13.70;99.90
54260;DHT22;40172;53.022;7.012;2023-08-06T05:18:20;13.80;99.90
54260;DHT22;40172;53.022;7.012;2023-08-06T05:20:47;13.90;99.90
54260;DHT22;40172;53.022;7.012;2023-08-06T05:23:13;14.00;99.90
54260;DHT22;40172;53.022;7.012;2023-08-06T05:25:38;14.20;99.90
54260;DHT22;40172;53.022;7.012;2023-08-06T05:28:04;14.30;99.90
54260;DHT22;40172;53.022;7.012;2023-08-06T05:30:30;14.30;99.90
54260;DHT22;40172;53.022;7.012;2023-08-06T05:32:56;14.40;99.90
54260;DHT22;40172;53.022;7.012;2023-08-06T05:35:22;14.50;99.90
54260;DHT22;40172;53.022;7.012;2023-08-06T05:37:48;14.60;99.90
54260;DHT22;40172;53.022;7.012;2023-08-06T05:40:15;14.70;99.90
54260;DHT22;40172;53.022;7.012;2023-08-06T05:42:41;14.80;99.90
54260;DHT22;40172;53.022;7.012;2023-08-06T05:45:07;14.90;99.90
54260;DHT22;40172;53.022;7.012;2023-08-06T05:47:33;15.00;99.90
54260;DHT22;40172;53.022;7.012;2023-08-06T05:49:58;15.00;99.90
54260;DHT22;40172;53.022;7.012;2023-08-06T05:52:24;15.10;99.90
54260;DHT22;40172;53.022;7.012;2023-08-06T05:54:50;15.10;99.90
54260;DHT22;40172;53.022;7.012;2023-08-06T05:57:16;15.20;99.90
54260;DHT22;40172;53.022;7.012;2023-08-06T05:59:42;15.30;99.90
54260;DHT22;40172;53.022;7.012;2023-08-06T06:02:08;15.30;99.90
54260;DHT22;40172;53.022;7.012;2023-08-06T06:04:34;15.30;99.90
54260;DHT22;40172;53.022;7.012;2023-08-06T06:06:59;15.30;99.90
54260;DHT22;40172;53.022;7.012;2023-08-06T06:09:25;15.20;99.90
54260;DHT22;40172;53.022;7.012;2023-08-06T06:11:50;15.20;99.90
54260;DHT22;40172;53.022;7.012;2023-08-06T06:14:19;15.10;99.90
54260;DHT22;40172;53.022;7.012;2023-08-06T06:16:45;15.10;99.90
54260;DHT22;40172;53.022;7.012;2023-08-06T06:19:11;15.10;99.90
54260;DHT22;40172;53.022;7.012;2023-08-06T06:21:37;15.00;99.90
54260;DHT22;40172;53.022;7.012;2023-08-06T06:24:06;15.10;99.90
54260;DHT22;40172;53.022;7.012;2023-08-06T06:26:32;15.10;99.90
54260;DHT22;40172;53.022;7.012;2023-08-06T06:28:58;15.20;99.90
54260;DHT22;40172;53.022;7.012;2023-08-06T06:31:23;15.30;99.90
54260;DHT22;40172;53.022;7.012;2023-08-06T06:33:49;15.30;99.90
54260;DHT22;40172;53.022;7.012;2023-08-06T06:36:15;15.40;99.90
54260;DHT22;40172;53.022;7.012;2023-08-06T06:38:40;15.50;99.90
54260;DHT22;40172;53.022;7.012;2023-08-06T06:41:06;15.60;99.90
54260;DHT22;40172;53.022;7.012;2023-08-06T06:43:32;15.70;99.90
54260;DHT22;40172;53.022;7.012;2023-08-06T06:45:58;15.80;99.90
54260;DHT22;40172;53.022;7.012;2023-08-06T06:48:26;15.80;99.90
54260;DHT22;40172;53.022;7.012;2023-08-06T06:50:52;15.90;99.90
54260;DHT22;40172;53.022;7.012;2023-08-06T06:53:18;15.90;99.90
54260;DHT22;40172;53.022;7.012;2023-08-06T06:55:43;16.00;99.90
54260;DHT22;40172;53.022;7.012;2023-08-06T06:58:09;16.00;99.90
54260;DHT22;40172;53.022;7.012;2023-08-06T07:00:38;16.10;99.90
54260;DHT22;40172;53.022;7.012;2023-08-06T07:03:04;16.10;99.90
54260;DHT22;40172;53.022;7.012;2023-08-06T07:05:29;16.20;99.90
54260;DHT22;40172;53.022;7.012;2023-08-06T07:07:55;16.30;99.90
54260;DHT22;40172;53.022;7.012;2023-08-06T07:10:21;16.30;99.90
54260;DHT22;40172;53.022;7.012;2023-08-06T07:12:46;16.40;99.90
54260;DHT22;40172;53.022;7.012;2023-08-06T07:15:12;16.40;99.90
54260;DHT22;40172;53.022;7.012;2023-08-06T07:17:37;16.40;99.90
54260;DHT22;40172;53.022;7.012;2023-08-06T07:20:03;16.50;99.90
54260;DHT22;40172;53.022;7.012;2023-08-06T07:22:29;16.60;99.90
54260;DHT22;40172;53.022;7.012;2023-08-06T07:24:55;16.60;99.90
54260;DHT22;40172;53.022;7.012;2023-08-06T07:27:20;16.70;99.90
54260;DHT22;40172;53.022;7.012;2023-08-06T07:29:46;16.80;99.90
54260;DHT22;40172;53.022;7.012;2023-08-06T07:32:13;16.90;99.90
54260;DHT22;40172;53.022;7.012;2023-08-06T07:34:39;18.20;99.90
54260;DHT22;40172;53.022;7.012;2023-08-06T07:37:04;17.10;99.90
54260;DHT22;40172;53.022;7.012;2023-08-06T07:39:31;17.10;99.90
54260;DHT22;40172;53.022;7.012;2023-08-06T07:41:56;17.20;99.90
54260;DHT22;40172;53.022;7.012;2023-08-06T07:44:22;17.20;99.90
54260;DHT22;40172;53.022;7.012;2023-08-06T07:46:47;17.30;99.90
54260;DHT22;40172;53.022;7.012;2023-08-06T07:49:13;17.40;99.90
54260;DHT22;40172;53.022;7.012;2023-08-06T07:51:38;17.50;99.90
54260;DHT22;40172;53.022;7.012;2023-08-06T07:54:05;17.60;99.90
54260;DHT22;40172;53.022;7.012;2023-08-06T07:56:31;17.70;99.90
54260;DHT22;40172;53.022;7.012;2023-08-06T07:58:56;17.90;99.90
54260;DHT22;40172;53.022;7.012;2023-08-06T08:01:22;18.00;99.90
54260;DHT22;40172;53.022;7.012;2023-08-06T08:03:47;18.10;99.90
54260;DHT22;40172;53.022;7.012;2023-08-06T08:06:13;19.10;99.90
54260;DHT22;40172;53.022;7.012;2023-08-06T08:08:38;18.10;99.90
54260;DHT22;40172;53.022;7.012;2023-08-06T08:11:05;18.10;99.90
54260;DHT22;40172;53.022;7.012;2023-08-06T08:13:31;18.10;99.90
54260;DHT22;40172;53.022;7.012;2023-08-06T08:16:00;18.00;99.90
54260;DHT22;40172;53.022;7.012;2023-08-06T08:18:26;18.00;99.90
54260;DHT22;40172;53.022;7.012;2023-08-06T08:20:52;18.00;99.90
54260;DHT22;40172;53.022;7.012;2023-08-06T08:23:17;17.90;99.90
54260;DHT22;40172;53.022;7.012;2023-08-06T08:25:43;17.80;99.90
54260;DHT22;40172;53.022;7.012;2023-08-06T08:28:08;17.80;99.90
54260;DHT22;40172;53.022;7.012;2023-08-06T08:30:34;17.80;99.90
54260;DHT22;40172;53.022;7.012;2023-08-06T08:32:59;17.80;99.90
54260;DHT22;40172;53.022;7.012;2023-08-06T08:35:25;17.90;99.90
54260;DHT22;40172;53.022;7.012;2023-08-06T08:37:51;17.90;99.90
54260;DHT22;40172;53.022;7.012;2023-08-06T08:40:17;17.90;99.90
54260;DHT22;40172;53.022;7.012;2023-08-06T08:42:43;18.00;99.90
54260;DHT22;40172;53.022;7.012;2023-08-06T08:45:14;18.00;99.90
54260;DHT22;40172;53.022;7.012;2023-08-06T08:47:43;18.00;99.90
54260;DHT22;40172;53.022;7.012;2023-08-06T08:50:10;18.10;99.90
54260;DHT22;40172;53.022;7.012;2023-08-06T08:52:38;18.20;99.90
54260;DHT22;40172;53.022;7.012;2023-08-06T08:55:05;18.30;99.90
54260;DHT22;40172;53.022;7.012;2023-08-06T08:57:32;18.40;99.90
54260;DHT22;40172;53.022;7.012;2023-08-06T08:59:57;18.60;99.90
54260;DHT22;40172;53.022;7.012;2023-08-06T09:02:25;18.80;99.90
54260;DHT22;40172;53.022;7.012;2023-08-06T09:04:53;18.90;99.90
54260;DHT22;40172;53.022;7.012;2023-08-06T09:07:20;19.00;99.90
54260;DHT22;40172;53.022;7.012;2023-08-06T09:09:49;19.10;99.90
54260;DHT22;40172;53.022;7.012;2023-08-06T09:12:16;19.30;99.90
54260;DHT22;40172;53.022;7.012;2023-08-06T09:14:42;19.40;99.90
54260;DHT22;40172;53.022;7.012;2023-08-06T09:17:08;19.40;99.90
54260;DHT22;40172;53.022;7.012;2023-08-06T09:19:36;19.50;99.90
54260;DHT22;40172;53.022;7.012;2023-08-06T09:22:02;19.80;99.90
54260;DHT22;40172;53.022;7.012;2023-08-06T09:24:28;20.30;99.90
54260;DHT22;40172;53.022;7.012;2023-08-06T09:26:53;21.10;99.90
54260;DHT22;40172;53.022;7.012;2023-08-06T09:29:20;20.30;99.90
54260;DHT22;40172;53.022;7.012;2023-08-06T09:31:48;20.40;99.90
54260;DHT22;40172;53.022;7.012;2023-08-06T09:34:21;20.40;99.90
54260;DHT22;40172;53.022;7.012;2023-08-06T09:36:49;20.40;99.90
54260;DHT22;40172;53.022;7.012;2023-08-06T09:39:17;20.80;99.90
54260;DHT22;40172;53.022;7.012;2023-08-06T09:41:44;20.30;99.90
54260;DHT22;40172;53.022;7.012;2023-08-06T09:44:20;20.20;99.90
54260;DHT22;40172;53.022;7.012;2023-08-06T09:46:56;20.10;99.90
54260;DHT22;40172;53.022;7.012;2023-08-06T09:49:26;20.10;99.90
54260;DHT22;40172;53.022;7.012;2023-08-06T09:51:52;20.20;99.90
54260;DHT22;40172;53.022;7.012;2023-08-06T09:54:24;20.50;99.90
54260;DHT22;40172;53.022;7.012;2023-08-06T09:56:52;20.80;99.90
54260;DHT22;40172;53.022;7.012;2023-08-06T09:59:18;20.90;99.90
54260;DHT22;40172;53.022;7.012;2023-08-06T10:01:45;21.60;99.90
54260;DHT22;40172;53.022;7.012;2023-08-06T10:04:13;21.30;99.90
54260;DHT22;40172;53.022;7.012;2023-08-06T10:06:42;21.40;99.90
54260;DHT22;40172;53.022;7.012;2023-08-06T10:09:08;21.60;99.90
54260;DHT22;40172;53.022;7.012;2023-08-06T10:11:36;21.70;99.90
54260;DHT22;40172;53.022;7.012;2023-08-06T10:14:32;21.60;99.90
54260;DHT22;40172;53.022;7.012;2023-08-06T10:16:59;21.50;99.90
54260;DHT22;40172;53.022;7.012;2023-08-06T10:19:26;21.30;99.90
54260;DHT22;40172;53.022;7.012;2023-08-06T10:22:15;21.10;99.90
54260;DHT22;40172;53.022;7.012;2023-08-06T10:24:59;21.10;99.90
54260;DHT22;40172;53.022;7.012;2023-08-06T10:27:30;21.20;99.90
54260;DHT22;40172;53.022;7.012;2023-08-06T10:30:32;21.20;99.90
54260;DHT22;40172;53.022;7.012;2023-08-06T10:32:59;21.10;99.90
54260;DHT22;40172;53.022;7.012;2023-08-06T10:35:44;21.00;99.90
54260;DHT22;40172;53.022;7.012;2023-08-06T10:38:15;20.90;99.90
54260;DHT22;40172;53.022;7.012;2023-08-06T10:43:39;20.90;99.90
54260;DHT22;40172;53.022;7.012;2023-08-06T10:46:22;21.10;99.90
54260;DHT22;40172;53.022;7.012;2023-08-06T10:48:48;21.20;99.90
54260;DHT22;40172;53.022;7.012;2023-08-06T10:51:14;21.40;99.90
54260;DHT22;40172;53.022;7.012;2023-08-06T10:53:48;21.20;99.90
54260;DHT22;40172;53.022;7.012;2023-08-06T10:56:15;21.80;99.90
54260;DHT22;40172;53.022;7.012;2023-08-06T10:58:41;22.10;99.90
54260;DHT22;40172;53.022;7.012;2023-08-06T11:01:07;22.10;99.90
54260;DHT22;40172;53.022;7.012;2023-08-06T11:03:34;20.90;99.90
54260;DHT22;40172;53.022;7.012;2023-08-06T11:06:00;20.80;99.90
54260;DHT22;40172;53.022;7.012;2023-08-06T11:08:26;20.80;99.90
54260;DHT22;40172;53.022;7.012;2023-08-06T11:10:55;20.70;99.90
54260;DHT22;40172;53.022;7.012;2023-08-06T11:13:21;20.70;99.90
54260;DHT22;40172;53.022;7.012;2023-08-06T11:15:47;20.70;99.90
54260;DHT22;40172;53.022;7.012;2023-08-06T11:18:13;20.70;99.90
54260;DHT22;40172;53.022;7.012;2023-08-06T11:20:39;20.80;99.90
54260;DHT22;40172;53.022;7.012;2023-08-06T11:23:05;20.90;99.90
54260;DHT22;40172;53.022;7.012;2023-08-06T11:25:36;21.10;99.90
54260;DHT22;40172;53.022;7.012;2023-08-06T11:28:02;21.60;99.90
54260;DHT22;40172;53.022;7.012;2023-08-06T11:30:28;21.60;99.90
54260;DHT22;40172;53.022;7.012;2023-08-06T11:32:54;21.80;99.90
54260;DHT22;40172;53.022;7.012;2023-08-06T11:35:19;21.90;99.90
54260;DHT22;40172;53.022;7.012;2023-08-06T11:37:45;21.90;99.90
54260;DHT22;40172;53.022;7.012;2023-08-06T11:40:13;21.80;99.90
54260;DHT22;40172;53.022;7.012;2023-08-06T11:42:39;22.30;99.90
54260;DHT22;40172;53.022;7.012;2023-08-06T11:45:05;21.70;99.90
54260;DHT22;40172;53.022;7.012;2023-08-06T11:47:31;21.70;99.90
54260;DHT22;40172;53.022;7.012;2023-08-06T11:49:57;21.60;99.90
54260;DHT22;40172;53.022;7.012;2023-08-06T11:52:24;22.30;99.90
54260;DHT22;40172;53.022;7.012;2023-08-06T11:55:04;22.40;99.90
54260;DHT22;40172;53.022;7.012;2023-08-06T11:57:36;21.50;99.90
54260;DHT22;40172;53.022;7.012;2023-08-06T12:00:06;21.50;99.90
54260;DHT22;40172;53.022;7.012;2023-08-06T12:02:33;21.50;99.90
54260;DHT22;40172;53.022;7.012;2023-08-06T12:05:10;21.60;99.90
54260;DHT22;40172;53.022;7.012;2023-08-06T12:07:41;21.70;99.90
54260;DHT22;40172;53.022;7.012;2023-08-06T12:10:07;21.80;99.90
54260;DHT22;40172;53.022;7.012;2023-08-06T12:12:34;22.00;99.90
54260;DHT22;40172;53.022;7.012;2023-08-06T12:14:59;22.10;99.90
54260;DHT22;40172;53.022;7.012;2023-08-06T12:17:25;22.10;99.90
54260;DHT22;40172;53.022;7.012;2023-08-06T12:19:51;22.10;99.90
54260;DHT22;40172;53.022;7.012;2023-08-06T12:22:16;22.20;99.90
54260;DHT22;40172;53.022;7.012;2023-08-06T12:24:46;22.00;99.90
54260;DHT22;40172;53.022;7.012;2023-08-06T12:27:12;22.70;99.90
54260;DHT22;40172;53.022;7.012;2023-08-06T12:29:43;22.10;99.90
54260;DHT22;40172;53.022;7.012;2023-08-06T12:32:10;22.00;99.90
54260;DHT22;40172;53.022;7.012;2023-08-06T12:34:37;22.00;99.90
54260;DHT22;40172;53.022;7.012;2023-08-06T12:37:03;22.20;99.90
54260;DHT22;40172;53.022;7.012;2023-08-06T12:39:29;22.10;99.90
54260;DHT22;40172;53.022;7.012;2023-08-06T12:41:57;22.10;99.90
54260;DHT22;40172;53.022;7.012;2023-08-06T12:44:23;22.00;99.90
54260;DHT22;40172;53.022;7.012;2023-08-06T12:46:50;21.90;99.90
54260;DHT22;40172;53.022;7.012;2023-08-06T12:49:16;21.70;99.90
54260;DHT22;40172;53.022;7.012;2023-08-06T12:51:42;21.40;99.90
54260;DHT22;40172;53.022;7.012;2023-08-06T12:54:08;21.40;99.90
54260;DHT22;40172;53.022;7.012;2023-08-06T12:56:34;21.30;99.90
54260;DHT22;40172;53.022;7.012;2023-08-06T12:59:00;21.30;99.90
54260;DHT22;40172;53.022;7.012;2023-08-06T13:01:25;21.30;99.90
54260;DHT22;40172;53.022;7.012;2023-08-06T13:03:51;21.30;99.90
54260;DHT22;40172;53.022;7.012;2023-08-06T13:06:16;21.20;99.90
54260;DHT22;40172;53.022;7.012;2023-08-06T13:08:42;21.20;99.90
54260;DHT22;40172;53.022;7.012;2023-08-06T13:11:08;21.20;99.90
54260;DHT22;40172;53.022;7.012;2023-08-06T13:13:34;21.10;99.90
54260;DHT22;40172;53.022;7.012;2023-08-06T13:15:59;21.10;99.90
54260;DHT22;40172;53.022;7.012;2023-08-06T13:18:25;21.10;99.90
54260;DHT22;40172;53.022;7.012;2023-08-06T13:20:53;21.00;99.90
54260;DHT22;40172;53.022;7.012;2023-08-06T13:23:20;20.90;99.90
54260;DHT22;40172;53.022;7.012;2023-08-06T13:25:46;20.80;99.90
54260;DHT22;40172;53.022;7.012;2023-08-06T13:28:11;20.60;99.90
54260;DHT22;40172;53.022;7.012;2023-08-06T13:30:39;20.60;99.90
54260;DHT22;40172;53.022;7.012;2023-08-06T13:33:08;20.60;99.90
54260;DHT22;40172;53.022;7.012;2023-08-06T13:35:34;20.50;99.90
54260;DHT22;40172;53.022;7.012;2023-08-06T13:37:59;20.50;99.90
54260;DHT22;40172;53.022;7.012;2023-08-06T13:40:28;20.60;99.90
54260;DHT22;40172;53.022;7.012;2023-08-06T13:42:54;20.60;99.90
54260;DHT22;40172;53.022;7.012;2023-08-06T13:45:19;20.60;99.90
54260;DHT22;40172;53.022;7.012;2023-08-06T13:47:45;20.60;99.90
54260;DHT22;40172;53.022;7.012;2023-08-06T13:50:11;21.40;99.90
54260;DHT22;40172;53.022;7.012;2023-08-06T13:52:36;20.60;99.90
54260;DHT22;40172;53.022;7.012;2023-08-06T13:55:02;20.50;99.90
54260;DHT22;40172;53.022;7.012;2023-08-06T13:57:29;20.50;99.90
54260;DHT22;40172;53.022;7.012;2023-08-06T13:59:55;20.50;99.90
54260;DHT22;40172;53.022;7.012;2023-08-06T14:02:22;20.50;99.90
54260;DHT22;40172;53.022;7.012;2023-08-06T14:04:48;20.60;99.90
54260;DHT22;40172;53.022;7.012;2023-08-06T14:07:13;20.70;99.90
54260;DHT22;40172;53.022;7.012;2023-08-06T14:09:39;20.80;99.90
54260;DHT22;40172;53.022;7.012;2023-08-06T14:12:05;20.70;99.90
54260;DHT22;40172;53.022;7.012;2023-08-06T14:14:31;20.80;99.90
54260;DHT22;40172;53.022;7.012;2023-08-06T14:16:57;20.80;99.90
54260;DHT22;40172;53.022;7.012;2023-08-06T14:19:23;20.90;99.90
54260;DHT22;40172;53.022;7.012;2023-08-06T14:21:49;20.90;99.90
54260;DHT22;40172;53.022;7.012;2023-08-06T14:24:14;20.90;99.90
54260;DHT22;40172;53.022;7.012;2023-08-06T14:26:40;20.90;99.90
54260;DHT22;40172;53.022;7.012;2023-08-06T14:29:06;21.00;99.90
54260;DHT22;40172;53.022;7.012;2023-08-06T14:31:31;21.00;99.90
54260;DHT22;40172;53.022;7.012;2023-08-06T14:33:57;20.90;99.90
54260;DHT22;40172;53.022;7.012;2023-08-06T14:36:23;20.90;99.90
54260;DHT22;40172;53.022;7.012;2023-08-06T14:38:48;20.90;99.90
54260;DHT22;40172;53.022;7.012;2023-08-06T14:41:14;20.90;99.90
54260;DHT22;40172;53.022;7.012;2023-08-06T14:43:39;21.00;99.90
54260;DHT22;40172;53.022;7.012;2023-08-06T14:46:05;20.90;99.90
54260;DHT22;40172;53.022;7.012;2023-08-06T14:48:31;20.90;99.90
54260;DHT22;40172;53.022;7.012;2023-08-06T14:50:57;20.90;99.90
54260;DHT22;40172;53.022;7.012;2023-08-06T14:53:22;20.90;99.90
54260;DHT22;40172;53.022;7.012;2023-08-06T14:55:48;20.90;99.90
54260;DHT22;40172;53.022;7.012;2023-08-06T14:58:14;20.70;99.90
54260;DHT22;40172;53.022;7.012;2023-08-06T15:00:39;20.50;99.90
54260;DHT22;40172;53.022;7.012;2023-08-06T15:03:05;20.50;99.90
54260;DHT22;40172;53.022;7.012;2023-08-06T15:05:31;20.40;99.90
54260;DHT22;40172;53.022;7.012;2023-08-06T15:07:56;20.40;99.90
54260;DHT22;40172;53.022;7.012;2023-08-06T15:10:22;20.40;99.90
54260;DHT22;40172;53.022;7.012;2023-08-06T15:12:48;20.40;99.90
54260;DHT22;40172;53.022;7.012;2023-08-06T15:15:14;20.50;99.90
54260;DHT22;40172;53.022;7.012;2023-08-06T15:17:39;20.50;99.90
54260;DHT22;40172;53.022;7.012;2023-08-06T15:20:06;20.50;99.90
54260;DHT22;40172;53.022;7.012;2023-08-06T15:22:32;20.50;99.90
54260;DHT22;40172;53.022;7.012;2023-08-06T15:25:00;20.50;99.90
54260;DHT22;40172;53.022;7.012;2023-08-06T15:27:25;20.40;99.90
54260;DHT22;40172;53.022;7.012;2023-08-06T15:29:51;20.40;99.90
54260;DHT22;40172;53.022;7.012;2023-08-06T15:32:17;20.40;99.90
54260;DHT22;40172;53.022;7.012;2023-08-06T15:34:42;20.30;99.90
54260;DHT22;40172;53.022;7.012;2023-08-06T15:37:08;20.30;99.90
54260;DHT22;40172;53.022;7.012;2023-08-06T15:39:34;20.30;99.90